Latest Coastal Weather Observations for Point Perpendicular

IDN60701

Issued at 3:42 pm EDT Friday 19 December 2014 (issued every 10 minutes, with the page automatically refreshed every 10 minutes)

About coastal observations | Map of coastal stations | Coastal observations for NSW | Marine services | Other Formats
Station Details ID: 068151 Name: POINT PERPENDICULAR AWS Lat: -35.09 Lon: 150.80 Height: 85.0 m
Data from the previous 72 hours. | See also: Recent months at Point Perpendicular
Date/Time
EDT
Temp

°C
Wind Pressure Rain
since 9am
mm
Weather Cloud Vis
km
Sea
Height
m
Swell
Dir
 
Speed
knots
Gust
knots
hPa Trend Height
m
Period
s
Dir
19/03:30pm 19.7 SE 12 19 1013.5 - 0.0 - - - - - - -
19/03:00pm 19.8 SE 11 17 1013.1 - 0.0 - - - - - - -
19/02:30pm 19.6 SE 12 18 1013.0 - 0.0 - - - - - - -
19/02:00pm 19.8 SSE 15 21 1012.8 - 0.0 - - - - - - -
19/01:30pm 19.4 SSE 13 19 1012.9 - 0.0 - - - - - - -
19/01:00pm 19.6 SSE 12 19 1013.2 - 0.0 - - - - - - -
19/12:30pm 19.6 SSE 13 18 1013.3 - 0.0 - - - - - - -
19/12:00pm 19.3 SSE 14 19 1013.4 - 0.0 - - - - - - -
19/11:30am 19.1 S 13 21 1013.1 - 0.0 - - - - - - -
19/11:00am 19.2 S 14 21 1013.0 - 0.0 - - - - - - -
19/10:30am 18.6 S 11 19 1013.0 - 0.0 - - - - - - -
19/10:00am 18.2 S 13 21 1013.1 - 0.0 - - - - - - -
19/09:30am 18.2 S 11 18 1012.7 - 0.0 - - - - - - -
19/09:00am 18.0 S 12 21 1012.5 - 0.0 - - - - - - -
19/08:30am 18.6 S 14 19 1012.4 - 0.0 - - - - - - -
19/08:00am 18.1 S 13 19 1011.6 - 0.0 - - - - - - -
19/07:30am 18.2 S 12 19 1011.5 - 0.0 - - - - - - -
19/07:00am 18.2 S 12 18 1011.0 - 0.0 - - - - - - -
19/06:30am 18.3 S 11 17 1011.0 - 0.0 - - - - - - -
19/06:00am 17.9 S 11 17 1010.6 - 0.0 - - - - - - -
19/05:30am 17.8 S 13 18 1010.2 - 0.0 - - - - - - -
19/05:00am 17.9 S 12 21 1009.7 - 0.0 - - - - - - -
19/04:30am 18.2 S 12 21 1009.2 - 0.0 - - - - - - -
19/04:24am 18.0 S 15 25 1008.9 - 0.0 - - - - - - -
19/04:00am 17.8 S 15 24 1008.6 - 0.0 - - - - - - -
19/03:33am 17.7 S 19 29 1008.2 - 0.0 - - - - - - -
19/03:30am 17.8 S 18 27 1007.9 - 0.0 - - - - - - -
19/03:00am 17.8 S 16 27 1007.8 - 0.0 - - - - - - -
19/02:37am 18.1 S 17 38 1006.7 - 0.0 - - - - - - -
19/02:30am 18.4 S 16 28 1006.6 - 0.0 - - - - - - -
19/02:00am 18.4 S 17 28 1005.5 - 0.0 - - - - - - -
19/01:49am 18.2 SSW 17 27 1005.1 - 0.0 - - - - - - -
19/01:44am 18.7 SSW 14 24 1005.3 - 0.0 - - - - - - -
19/01:30am 20.0 NW 6 8 1006.3 - 0.0 - - - - - - -
19/01:00am 20.2 NNW 6 8 1005.2 - 0.0 - - - - - - -
19/12:30am 19.9 NNW 5 7 1005.1 - 0.0 - - - - - - -
 
Date/Time
EDT
Temp

°C
Wind Pressure Rain
since 9am
mm
Weather Cloud Vis
km
Sea
Height
m
Swell
Dir
 
Speed
knots
Gust
knots
hPa Trend Height
m
Period
s
Dir
18/11:30pm 20.7 N 8 14 1005.4 - 0.0 - - - - - - -
18/11:00pm 20.9 N 11 17 1005.4 - 0.0 - - - - - - -
18/10:30pm 20.9 NNE 13 21 1005.4 - 0.0 - - - - - - -
18/10:00pm 21.2 NNE 14 19 1005.3 - 0.0 - - - - - - -
18/09:30pm 21.3 NNE 13 18 1005.4 - 0.0 - - - - - - -
18/09:00pm 21.3 NNE 12 17 1005.3 - 0.0 - - - - - - -
18/08:30pm 21.3 NNE 12 16 1005.3 - 0.0 - - - - - - -
18/08:00pm 21.4 NNE 13 17 1004.9 - 0.0 - - - - - - -
18/07:30pm 22.0 NNE 14 18 1004.7 - 0.0 - - - - - - -
18/07:00pm 22.6 NNE 16 22 1004.2 - 0.0 - - - - - - -
18/06:30pm 23.0 NNE 15 19 1004.2 - 0.0 - - - - - - -
18/06:00pm 23.6 NNE 16 21 1004.2 - 0.0 - - - - - - -
18/05:30pm 23.5 NNE 14 21 1003.8 - 0.0 - - - - - - -
18/05:00pm 23.8 NE 15 23 1003.9 - 0.0 - - - - - - -
18/04:30pm 24.0 NNE 16 22 1003.9 - 0.0 - - - - - - -
18/04:13pm 23.9 NE 17 27 1004.2 - 0.0 - - - - - - -
18/04:00pm 24.0 NE 20 26 1004.2 - 0.0 - - - - - - -
18/03:30pm 24.2 NNE 17 24 1004.5 - 0.0 - - - - - - -
18/03:00pm 24.1 NE 18 26 1004.7 - 0.0 - - - - - - -
18/02:30pm 24.1 NE 17 24 1005.2 - 0.0 - - - - - - -
18/02:00pm 23.3 NE 17 25 1005.7 - 0.0 - - - - - - -
18/01:30pm 22.3 NE 16 23 1006.1 - 0.0 - - - - - - -
18/01:00pm 22.1 NE 14 17 1006.7 - 0.0 - - - - - - -
18/12:30pm 22.6 NE 14 19 1007.3 - 0.0 - - - - - - -
18/12:02pm 23.2 NNE 15 25 1007.5 - 0.0 - - - - - - -
18/12:00pm 23.5 NNE 15 22 1007.6 - 0.0 - - - - - - -
18/11:30am 22.9 NE 13 19 1008.1 - 0.0 - - - - - - -
18/11:00am 21.4 NNE 13 17 1008.7 - 0.0 - - - - - - -
18/10:30am 20.8 NNE 11 16 1009.2 - 0.0 - - - - - - -
18/10:00am 20.5 NNE 9 14 1009.5 - 0.0 - - - - - - -
18/09:30am 19.8 N 6 9 1009.7 - 0.0 - - - - - - -
18/09:00am 19.4 N 6 9 1009.9 - 0.0 - - - - - - -
18/08:30am 19.2 N 5 8 1010.2 - 0.0 - - - - - - -
18/08:00am 19.4 N 7 11 1010.1 - 0.0 - - - - - - -
18/07:30am 18.7 N 4 6 1010.0 - 0.0 - - - - - - -
18/07:00am 18.1 N 3 4 1010.0 - 0.0 - - - - - - -
18/06:30am 17.9 N 2 4 1009.5 - 0.0 - - - - - - -
18/06:00am 17.5 N 4 5 1009.3 - 0.0 - - - - - - -
18/05:30am 17.5 N 3 4 1009.3 - 0.0 - - - - - - -
18/05:00am 17.5 N 1 4 1009.3 - 0.0 - - - - - - -
18/04:30am 17.5 N 4 5 1009.1 - 0.0 - - - - - - -
18/04:00am 17.5 NNW 3 4 1009.2 - 0.0 - - - - - - -
18/03:30am 18.0 N 5 8 1009.5 - 0.0 - - - - - - -
18/03:00am 18.6 NE 7 12 1009.4 - 0.0 - - - - - - -
18/02:30am 18.4 NE 5 8 1009.6 - 0.0 - - - - - - -
18/02:00am 18.3 NE 5 8 1010.0 - 0.0 - - - - - - -
18/01:30am 18.1 NE 4 6 1010.2 - 0.0 - - - - - - -
18/01:00am 18.3 NE 7 9 1010.6 - 0.0 - - - - - - -
18/12:30am 18.2 NE 5 7 1010.8 - 0.0 - - - - - - -
18/12:00am 18.2 NE 5 9 1011.1 - 0.0 - - - - - - -
 
Date/Time
EDT
Temp

°C
Wind Pressure Rain
since 9am
mm
Weather Cloud Vis
km
Sea
Height
m
Swell
Dir
 
Speed
knots
Gust
knots
hPa Trend Height
m
Period
s
Dir
17/11:30pm 18.3 ENE 5 8 1011.4 - 0.0 - - - - - - -
17/11:00pm 18.2 E 5 8 1011.6 - 0.0 - - - - - - -
17/10:30pm 18.1 E 5 7 1011.7 - 0.0 - - - - - - -
17/10:00pm 18.1 E 5 8 1011.3 - 0.0 - - - - - - -
17/09:30pm 18.1 ESE 4 7 1011.4 - 0.0 - - - - - - -
17/09:00pm 18.2 E 5 7 1011.0 - 0.0 - - - - - - -
17/08:30pm 18.3 ESE 4 7 1010.7 - 0.0 - - - - - - -
17/08:00pm 18.3 ESE 5 9 1010.3 - 0.0 - - - - - - -
17/07:30pm 18.4 ESE 4 7 1010.0 - 0.0 - - - - - - -
17/07:00pm 18.4 SE 6 9 1009.5 - 0.0 - - - - - - -
17/06:30pm 18.4 SE 5 9 1009.3 - 0.0 - - - - - - -
17/06:00pm 18.6 SE 6 11 1008.7 - 0.0 - - - - - - -
17/05:30pm 18.5 SE 7 12 1008.5 - 0.0 - - - - - - -
17/05:00pm 18.8 SE 7 12 1008.4 - 0.0 - - - - - - -
17/04:30pm 18.8 SE 7 13 1008.4 - 0.0 - - - - - - -
17/04:00pm 19.0 SE 7 12 1008.5 - 0.0 - - - - - - -
17/03:30pm 19.4 SE 8 14 1008.5 - 0.0 - - - - - - -
17/03:00pm 19.1 SE 8 14 1008.3 - 0.0 - - - - - - -
17/02:30pm 20.7 SE 10 15 1008.2 - 0.0 - - - - - - -
17/02:00pm 20.7 SE 11 16 1008.3 - 0.0 - - - - - - -
17/01:30pm 20.4 SSE 11 17 1008.1 - 0.0 - - - - - - -
17/01:00pm 19.9 SSE 10 16 1008.0 - 0.0 - - - - - - -
17/12:30pm 20.0 SSE 12 17 1007.8 - 0.0 - - - - - - -
17/12:00pm 20.3 SSE 11 18 1007.9 - 0.0 - - - - - - -
17/11:30am 19.3 SSE 12 18 1008.1 - 0.0 - - - - - - -
17/11:00am 18.4 SSE 10 17 1007.6 - 0.0 - - - - - - -
17/10:30am 18.6 S 11 16 1007.5 - 0.0 - - - - - - -
17/10:00am 18.5 S 12 19 1007.0 - 0.0 - - - - - - -
17/09:30am 18.3 SSE 11 17 1006.7 - 0.0 - - - - - - -
17/09:00am 18.3 S 13 19 1006.4 - 0.4 - - - - - - -
17/08:30am 18.3 SSE 11 16 1006.3 - 0.4 - - - - - - -
17/08:00am 18.3 S 13 21 1005.8 - 0.4 - - - - - - -
17/07:30am 18.3 SSE 13 21 1005.4 - 0.4 - - - - - - -
17/07:00am 18.3 S 13 17 1004.6 - 0.4 - - - - - - -
17/06:30am 18.3 S 11 18 1004.0 - 0.4 - - - - - - -
17/06:00am 18.3 SSE 13 19 1003.5 - 0.4 - - - - - - -
17/05:30am 18.4 S 14 23 1003.0 - 0.4 - - - - - - -
17/05:00am 18.5 S 15 23 1002.3 - 0.4 - - - - - - -
17/04:30am 18.5 S 14 23 1001.8 - 0.4 - - - - - - -
17/04:00am 18.6 S 14 23 1001.0 - 0.4 - - - - - - -
17/03:35am 18.8 S 15 25 1000.3 - 0.4 - - - - - - -
17/03:30am 18.7 S 16 25 1000.2 - 0.4 - - - - - - -
17/03:00am 19.2 SSW 19 29 999.8 - 0.4 - - - - - - -
17/02:30am 19.8 SW 16 27 998.7 - 0.4 - - - - - - -
17/02:19am 19.4 SW 15 25 998.5 - 0.4 - - - - - - -
17/02:00am 21.1 W 10 24 998.1 - 0.4 - - - - - - -
17/01:30am 21.9 NNW 6 8 996.7 - 0.4 - - - - - - -
17/01:00am 21.5 NNW 8 11 997.3 - 0.4 - - - - - - -
17/12:30am 21.0 N 7 9 997.0 - 0.4 - - - - - - -
17/12:00am 20.3 N 10 13 997.1 - 0.4 - - - - - - -
 
Date/Time
EDT
Temp

°C
Wind Pressure Rain
since 9am
mm
Weather Cloud Vis
km
Sea
Height
m
Swell
Dir
 
Speed
knots
Gust
knots
hPa Trend Height
m
Period
s
Dir
16/11:30pm 20.6 N 10 14 996.5 - 0.4 - - - - - - -
16/11:00pm 21.0 N 11 15 996.6 - 0.4 - - - - - - -
16/10:30pm 21.1 NNE 11 14 997.0 - 0.4 - - - - - - -
16/10:00pm 21.0 NNE 14 18 997.0 - 0.4 - - - - - - -
16/09:30pm 21.0 NNE 15 22 996.7 - 0.4 - - - - - - -
16/09:00pm 21.0 NNE 15 21 996.8 - 0.4 - - - - - - -
16/08:30pm 21.2 NNE 12 17 997.1 - 0.4 - - - - - - -
16/08:06pm 21.4 NNE 16 26 997.1 - 0.4 - - - - - - -
16/08:00pm 21.6 NNE 17 26 997.0 - 0.4 - - - - - - -
16/07:30pm 22.2 NNE 19 27 996.6 - 0.4 - - - - - - -
16/07:00pm 22.7 NNE 21 32 996.4 - 0.4 - - - - - - -
16/06:34pm 22.7 NNE 21 31 996.0 - 0.4 - - - - - - -
16/06:30pm 22.6 NNE 20 29 996.0 - 0.4 - - - - - - -
16/06:03pm 23.1 NNE 22 32 995.7 - 0.4 - - - - - - -
16/06:00pm 23.1 NNE 22 29 995.7 - 0.4 - - - - - - -
16/05:30pm 23.2 NNE 23 35 995.8 - 0.4 - - - - - - -
16/05:00pm 23.4 NNE 25 37 996.3 - 0.4 - - - - - - -
16/04:30pm 23.7 NNE 27 38 996.7 - 0.4 - - - - - - -
16/04:00pm 22.9 NNE 27 37 996.6 - 0.4 - - - - - - -

Other Formats:

Comma delimited format used in spreadsheet applications
http://www.bom.gov.au/fwo/IDN60701/IDN60701.95940.axf

JavaScript Object Notation format (JSON) in row-major order
http://www.bom.gov.au/fwo/IDN60701/IDN60701.95940.json